Terminal Aerodrome Forecast
Issued by NWS Sterling, VA

Home | Current Version | Previous Version | Text Only | Print | Product List | Glossary On
Versions: 1 2 3 4 5 6 7 8 9 10 11 12 13 14 15 16 17 18 19 20 21 22 23 24
769
FTUS41 KLWX 142327
TAFDCA
TAF
KDCA 142327Z 1500/1524 09004KT P6SM OVC200
     FM150600 15006KT 2SM -SN BR OVC025
     FM151500 14007KT 2SM -SN BR OVC010
     FM152200 10004KT 3SM -FZRA BR OVC006=

USA.gov is the U.S. government's official web portal to all federal, state and local government web resources and services.